Aérodrome :
LOGIN :

S'inscrire | Disclaimer

   EN    FR    IT 

 










Légende :    VFR   VFR Marginal   IFR   IFR Intensif   IFR Très Intensif
Visi : 
Plafond : 
>= 8 km
>= 3000ft
5 à 8 km
1000 à 3000 ft
1500m à 5 km
500 à 1000 ft
800 à 1500m
200 à 500 ft
< 800m
< 200 ft
Symboles :   Orages  Brouillard  Fortes neiges  Fortes précipitations  Vent > 20 kt
SIGMETs :   Divers  Orages  Givrage  Turbulence  Onde Orograph.  Cendres Volcan.







- Altitude de l'aérodrome : 290 ft
- Code IATA : ACI
- Voir les cartes d'approche


EGJA - Alderney

DERNIER METAR :
  • 230750Z 26007KT 9999 BKN020 15/13 Q1020

METARs EXPIRÉS :
  • 230720Z 28008KT 9999 BKN020 15/12 Q1020
  • 230650Z 28009KT 9999 BKN020 15/12 Q1019
  • 230620Z 28009KT 9999 BKN019 14/12 Q1019
  • 230550Z 28008KT 9999 BKN017 14/12 Q1019

TAF TAF EGJA
Valide du 23 à 09h jusqu'au 23 à 18h UTC


230751Z 2309/2318 28012KT 9999 FEW012 BKN020
PROB30
TEMPO 2309/2310 BKN010
Pas de NOTAMs connus pour ce terrain.



MET'MAP, la Météo Aéronautique d'un coup d'oeil ! - Copyright ORBIFLY Décembre 2007 - Disclaimer

ORBIFLY MET'MAP TEAM :

Programmation & Développement : Alexandra Zaïnal
Conception & Développement : Baudouin d'Aumeries
Co-Programmation & Développement : Marc-Olivier Méhu
Soutien technique & logistique : Manuel Goepfert

Contact : metmap@orbifly.com




SOURCES & CREDITS :

   NOAA